Time;durP1;ratioP1;P1;durP2;ratioP2;P2;SDS_P1;SDS_P2;PMS_P1;PMS_P2;Temp;Humidity;BMP_temperature;BMP_pressure;BME280_temperature;BME280_humidity;BME280_pressure;Samples;Min_cycle;Max_cycle;Signal;HPM_P1;HPM_P2
2023/09/02 06:02:37;;;;;;;7.10;3.87;;;;;;;;;;4895822;29;20576;-71
2023/09/02 06:05:03;;;;;;;9.93;4.37;;;;;;;;;;4906948;29;20437;-71
2023/09/02 06:07:29;;;;;;;9.57;3.80;;;;;;;;;;4930562;29;20419;-71
2023/09/02 06:09:55;;;;;;;11.13;4.70;;;;;;;;;;4915821;29;20434;-70
2023/09/02 06:12:22;;;;;;;10.37;4.40;;;;;;;;;;4915843;29;20470;-71
2023/09/02 06:14:49;;;;;;;12.20;4.00;;;;;;;;;;4915301;29;20493;-71
2023/09/02 06:17:14;;;;;;;5.97;3.50;;;;;;;;;;4914313;29;20406;-71
2023/09/02 06:19:41;;;;;;;13.07;5.37;;;;;;;;;;4896861;29;20782;-71
2023/09/02 06:22:07;;;;;;;9.60;4.27;;;;;;;;;;4896871;29;20450;-71
2023/09/02 06:24:33;;;;;;;10.27;4.07;;;;;;;;;;4897040;29;20415;-71
2023/09/02 06:27:03;;;;;;;13.73;5.60;;;;;;;;;;4896806;29;20487;-71
2023/09/02 06:29:32;;;;;;;11.27;5.23;;;;;;;;;;4913563;29;20439;-71
2023/09/02 06:31:58;;;;;;;9.13;4.60;;;;;;;;;;4915483;29;20470;-71
2023/09/02 06:34:24;;;;;;;5.80;4.30;;;;;;;;;;4911749;29;20483;-70
2023/09/02 06:36:50;;;;;;;7.27;4.67;;;;;;;;;;4896847;29;20434;-71
2023/09/02 06:39:16;;;;;;;7.30;4.33;;;;;;;;;;4914499;29;20458;-70
2023/09/02 06:41:42;;;;;;;14.10;4.80;;;;;;;;;;4915264;29;20434;-71
2023/09/02 06:44:08;;;;;;;7.43;4.00;;;;;;;;;;4915049;29;20423;-71
2023/09/02 06:46:35;;;;;;;5.50;3.13;;;;;;;;;;4897033;29;20423;-70
2023/09/02 06:49:05;;;;;;;14.53;3.80;;;;;;;;;;4896617;29;20766;-72
2023/09/02 06:51:31;;;;;;;6.40;3.80;;;;;;;;;;4896992;29;20471;-72
2023/09/02 06:53:57;;;;;;;4.07;2.97;;;;;;;;;;4896833;29;20502;-71
2023/09/02 06:56:23;;;;;;;6.90;3.80;;;;;;;;;;4914570;29;20458;-71
2023/09/02 06:58:50;;;;;;;6.93;4.23;;;;;;;;;;4915348;29;20407;-71
2023/09/02 07:01:23;;;;;;;8.57;4.37;;;;;;;;;;4917165;29;20844;-71
2023/09/02 07:03:49;;;;;;;8.27;4.37;;;;;;;;;;4917636;29;20431;-71
2023/09/02 07:06:15;;;;;;;6.60;4.13;;;;;;;;;;4919177;29;20422;-71
2023/09/02 07:08:42;;;;;;;6.60;3.50;;;;;;;;;;4917646;29;20429;-72
2023/09/02 07:11:11;;;;;;;5.63;3.67;;;;;;;;;;4919242;29;20492;-72
2023/09/02 07:13:38;;;;;;;15.93;8.93;;;;;;;;;;4918201;29;20434;-68
2023/09/02 07:16:04;;;;;;;7.23;4.07;;;;;;;;;;4904102;29;20446;-67
2023/09/02 07:18:30;;;;;;;4.23;3.17;;;;;;;;;;4912057;29;20855;-68
2023/09/02 07:20:59;;;;;;;7.70;3.27;;;;;;;;;;4899468;29;20470;-68
2023/09/02 07:23:26;;;;;;;6.20;3.60;;;;;;;;;;4900058;29;20420;-68
2023/09/02 07:25:52;;;;;;;4.37;3.13;;;;;;;;;;4900139;29;20431;-69
2023/09/02 07:28:18;;;;;;;5.10;3.60;;;;;;;;;;4899776;29;20549;-69
2023/09/02 07:30:44;;;;;;;5.17;2.90;;;;;;;;;;4899644;29;20489;-68
2023/09/02 07:33:09;;;;;;;11.80;4.07;;;;;;;;;;4899964;29;20432;-73
2023/09/02 07:35:37;;;;;;;6.10;3.70;;;;;;;;;;4899407;29;20419;-72
2023/09/02 07:38:07;;;;;;;4.30;2.90;;;;;;;;;;4913039;29;20426;-72
2023/09/02 07:40:33;;;;;;;5.53;2.60;;;;;;;;;;4917601;29;20430;-72
2023/09/02 07:43:02;;;;;;;7.90;3.00;;;;;;;;;;4918147;29;20904;-72
2023/09/02 07:45:29;;;;;;;6.07;3.00;;;;;;;;;;4917693;29;20407;-72
2023/09/02 07:47:55;;;;;;;4.63;3.30;;;;;;;;;;4905750;29;20785;-72
2023/09/02 07:50:21;;;;;;;5.83;3.47;;;;;;;;;;4899656;29;20850;-72
2023/09/02 07:52:48;;;;;;;6.13;3.13;;;;;;;;;;4899347;29;20799;-71
2023/09/02 07:55:14;;;;;;;7.20;3.43;;;;;;;;;;4899791;29;20437;-71
2023/09/02 07:57:40;;;;;;;11.03;3.90;;;;;;;;;;4908947;29;21003;-71
2023/09/02 08:00:07;;;;;;;11.60;3.37;;;;;;;;;;4917909;29;20410;-71
2023/09/02 08:02:33;;;;;;;5.73;3.40;;;;;;;;;;4917454;29;20514;-71
2023/09/02 08:04:59;;;;;;;5.10;3.03;;;;;;;;;;4917891;29;20825;-71
2023/09/02 08:07:25;;;;;;;6.20;2.93;;;;;;;;;;4901528;29;20467;-71
2023/09/02 08:09:52;;;;;;;5.20;3.20;;;;;;;;;;4898966;29;20426;-71
2023/09/02 08:12:18;;;;;;;4.53;2.70;;;;;;;;;;4898816;29;20986;-71
2023/09/02 08:14:44;;;;;;;3.90;2.90;;;;;;;;;;4897796;29;20420;-71
2023/09/02 08:17:10;;;;;;;10.50;3.13;;;;;;;;;;4911737;29;20422;-71
2023/09/02 08:19:36;;;;;;;9.07;3.10;;;;;;;;;;4917486;29;20447;-71
2023/09/02 08:22:02;;;;;;;6.30;3.07;;;;;;;;;;4917834;29;20574;-71
2023/09/02 08:24:29;;;;;;;4.70;2.90;;;;;;;;;;4908714;29;20910;-71
2023/09/02 08:26:55;;;;;;;6.80;2.83;;;;;;;;;;4898954;29;20498;-71
2023/09/02 08:29:21;;;;;;;4.40;3.10;;;;;;;;;;4897389;29;20522;-71
2023/09/02 08:31:52;;;;;;;6.70;3.30;;;;;;;;;;4898457;29;20622;-71
2023/09/02 08:34:18;;;;;;;7.00;3.20;;;;;;;;;;4905206;29;20430;-71
2023/09/02 08:36:44;;;;;;;5.87;3.70;;;;;;;;;;4917747;29;20808;-71
2023/09/02 08:39:10;;;;;;;7.63;2.90;;;;;;;;;;4917079;29;20792;-71
2023/09/02 08:41:36;;;;;;;5.80;3.20;;;;;;;;;;4917257;29;20497;-72
2023/09/02 08:44:03;;;;;;;9.30;2.90;;;;;;;;;;4913068;29;20470;-73
2023/09/02 08:46:31;;;;;;;4.67;3.40;;;;;;;;;;4898412;29;20416;-71
2023/09/02 08:48:57;;;;;;;4.80;3.20;;;;;;;;;;4898100;29;20407;-71
2023/09/02 08:51:24;;;;;;;4.83;2.93;;;;;;;;;;4898300;29;20561;-72
2023/09/02 08:53:51;;;;;;;8.50;3.50;;;;;;;;;;4898338;29;20510;-71
2023/09/02 08:56:17;;;;;;;7.90;3.60;;;;;;;;;;4903611;29;20432;-73
2023/09/02 08:58:43;;;;;;;6.07;2.97;;;;;;;;;;4916500;29;20422;-72
2023/09/02 09:01:10;;;;;;;4.83;3.50;;;;;;;;;;4916706;29;20453;-72
2023/09/02 09:03:38;;;;;;;4.30;3.00;;;;;;;;;;4917066;29;20426;-71
2023/09/02 09:06:05;;;;;;;12.30;4.00;;;;;;;;;;4913023;29;20514;-71
2023/09/02 09:08:32;;;;;;;9.13;3.10;;;;;;;;;;4897802;29;20431;-71
2023/09/02 09:10:58;;;;;;;6.27;3.30;;;;;;;;;;4897980;29;20596;-71
2023/09/02 09:13:25;;;;;;;4.50;2.97;;;;;;;;;;4897883;29;20518;-71
2023/09/02 09:15:52;;;;;;;5.63;3.03;;;;;;;;;;4898183;29;20580;-71
2023/09/02 09:18:18;;;;;;;10.00;3.00;;;;;;;;;;4899821;29;20517;-71
2023/09/02 09:20:44;;;;;;;6.60;3.30;;;;;;;;;;4916745;29;20434;-71
2023/09/02 09:23:10;;;;;;;5.03;3.30;;;;;;;;;;4916327;29;20415;-71
2023/09/02 09:25:37;;;;;;;5.70;3.70;;;;;;;;;;4916562;29;20417;-71
2023/09/02 09:28:12;;;;;;;6.10;3.50;;;;;;;;;;4916487;29;20450;-71
2023/09/02 09:30:38;;;;;;;6.57;4.03;;;;;;;;;;4911794;29;20443;-71
2023/09/02 09:33:05;;;;;;;7.53;3.80;;;;;;;;;;4896466;29;20479;-72
2023/09/02 09:35:32;;;;;;;6.27;3.10;;;;;;;;;;4897640;29;20840;-72
2023/09/02 09:37:58;;;;;;;5.37;2.87;;;;;;;;;;4897498;29;20921;-71
2023/09/02 09:40:38;;;;;;;4.60;3.17;;;;;;;;;;4897379;29;20415;-71
2023/09/02 09:43:14;;;;;;;7.70;2.73;;;;;;;;;;4903436;29;20501;-71
2023/09/02 09:45:48;;;;;;;6.93;4.43;;;;;;;;;;4916509;29;20769;-72
2023/09/02 09:48:14;;;;;;;4.10;2.70;;;;;;;;;;4906210;29;20459;-71
2023/09/02 09:50:40;;;;;;;6.00;3.17;;;;;;;;;;4897013;29;20998;-72
2023/09/02 09:53:06;;;;;;;4.60;2.70;;;;;;;;;;4897257;29;20873;-72
2023/09/02 09:55:34;;;;;;;4.00;2.63;;;;;;;;;;4897238;29;20791;-71
2023/09/02 09:58:00;;;;;;;6.93;2.63;;;;;;;;;;4903501;29;20447;-72
2023/09/02 10:00:27;;;;;;;4.33;2.90;;;;;;;;;;4915758;29;20445;-72
2023/09/02 10:02:54;;;;;;;4.80;3.13;;;;;;;;;;4915887;29;20418;-72
2023/09/02 10:05:24;;;;;;;3.60;2.40;;;;;;;;;;4916158;29;20810;-72
2023/09/02 10:07:58;;;;;;;6.57;2.77;;;;;;;;;;4915630;29;21015;-72
2023/09/02 10:10:28;;;;;;;5.53;2.93;;;;;;;;;;4906296;29;20438;-71
2023/09/02 10:12:55;;;;;;;3.70;2.60;;;;;;;;;;4897023;29;20470;-72
2023/09/02 10:15:24;;;;;;;4.97;2.97;;;;;;;;;;4896703;29;20427;-72
2023/09/02 10:17:51;;;;;;;9.53;3.77;;;;;;;;;;4897057;29;20422;-72
2023/09/02 10:20:18;;;;;;;4.17;2.33;;;;;;;;;;4896823;29;20427;-72
2023/09/02 10:22:45;;;;;;;6.87;3.03;;;;;;;;;;4910700;29;20434;-72
2023/09/02 10:25:19;;;;;;;4.27;2.40;;;;;;;;;;4916139;29;20900;-72
2023/09/02 10:27:47;;;;;;;4.47;2.30;;;;;;;;;;4915613;29;20426;-72
2023/09/02 10:30:25;;;;;;;3.67;2.57;;;;;;;;;;4915344;29;20506;-72
2023/09/02 10:32:52;;;;;;;4.73;2.60;;;;;;;;;;4900372;29;20474;-72
2023/09/02 10:35:22;;;;;;;3.17;2.27;;;;;;;;;;4897191;29;20475;-72
2023/09/02 10:37:55;;;;;;;8.53;2.73;;;;;;;;;;4900662;29;20407;-72
2023/09/02 10:40:23;;;;;;;3.60;2.20;;;;;;;;;;4900210;29;20503;-72
2023/09/02 10:42:52;;;;;;;4.20;2.40;;;;;;;;;;4899409;29;20427;-72
2023/09/02 10:45:18;;;;;;;4.70;2.33;;;;;;;;;;4919827;29;20474;-72
2023/09/02 10:47:45;;;;;;;4.70;2.13;;;;;;;;;;4920213;29;20461;-72
2023/09/02 10:50:11;;;;;;;4.10;2.47;;;;;;;;;;4919215;29;20459;-72
2023/09/02 10:52:38;;;;;;;5.07;2.07;;;;;;;;;;4919201;29;20983;-73
2023/09/02 10:55:08;;;;;;;4.30;2.57;;;;;;;;;;4914018;29;20937;-72
2023/09/02 10:57:54;;;;;;;5.43;2.60;;;;;;;;;;4900073;29;20913;-72
2023/09/02 11:00:21;;;;;;;5.60;2.70;;;;;;;;;;4899944;29;20495;-72
2023/09/02 11:02:48;;;;;;;6.50;2.40;;;;;;;;;;4900204;29;20419;-72
2023/09/02 11:05:14;;;;;;;4.27;2.17;;;;;;;;;;4918759;29;20473;-73
2023/09/02 11:07:41;;;;;;;2.67;2.07;;;;;;;;;;4908570;29;20435;-72
2023/09/02 11:10:08;;;;;;;4.40;2.17;;;;;;;;;;4899886;29;20420;-72
2023/09/02 11:12:34;;;;;;;3.33;2.00;;;;;;;;;;4900060;29;20833;-72
2023/09/02 11:15:11;;;;;;;3.77;2.20;;;;;;;;;;4898993;29;20929;-72
2023/09/02 11:17:38;;;;;;;4.17;2.50;;;;;;;;;;4899954;29;20419;-72
2023/09/02 11:20:05;;;;;;;5.63;2.53;;;;;;;;;;4911932;29;20775;-72
2023/09/02 11:22:47;;;;;;;3.73;2.60;;;;;;;;;;4919721;29;20460;-72
2023/09/02 11:25:29;;;;;;;3.40;2.27;;;;;;;;;;4919588;29;20423;-73
2023/09/02 11:27:55;;;;;;;4.53;3.03;;;;;;;;;;4909976;29;20959;-72
2023/09/02 11:30:23;;;;;;;3.90;2.40;;;;;;;;;;4898494;29;20574;-72
2023/09/02 11:32:49;;;;;;;4.03;2.43;;;;;;;;;;4914872;29;20701;-72
2023/09/02 11:35:29;;;;;;;3.70;2.30;;;;;;;;;;4898841;29;20416;-72
2023/09/02 11:37:55;;;;;;;5.27;2.50;;;;;;;;;;4899702;29;20442;-72
2023/09/02 11:40:22;;;;;;;3.23;2.50;;;;;;;;;;4899495;29;20908;-72
2023/09/02 11:42:59;;;;;;;10.90;3.40;;;;;;;;;;4899468;29;20420;-72
2023/09/02 11:45:26;;;;;;;4.40;2.70;;;;;;;;;;4917041;29;20434;-72
2023/09/02 11:47:52;;;;;;;2.50;2.10;;;;;;;;;;4917624;29;20423;-72
2023/09/02 11:50:20;;;;;;;3.60;1.93;;;;;;;;;;4917944;29;20415;-72
2023/09/02 11:52:47;;;;;;;2.93;2.10;;;;;;;;;;4917951;29;20892;-72
2023/09/02 11:55:17;;;;;;;2.53;1.90;;;;;;;;;;4916616;29;20866;-72
2023/09/02 11:57:43;;;;;;;8.03;2.20;;;;;;;;;;4900001;29;20435;-72
2023/09/02 12:00:14;;;;;;;3.20;2.10;;;;;;;;;;4901736;29;20503;-72
2023/09/02 12:02:40;;;;;;;7.67;2.30;;;;;;;;;;4900598;29;20428;-71
2023/09/02 12:05:07;;;;;;;2.97;1.93;;;;;;;;;;4901141;29;20418;-71
2023/09/02 12:07:35;;;;;;;4.77;2.77;;;;;;;;;;4899382;29;20479;-73
2023/09/02 12:10:11;;;;;;;4.13;2.30;;;;;;;;;;4917574;29;20422;-71
2023/09/02 12:15:05;;;;;;;3.80;2.30;;;;;;;;;;4935351;23;20489;-74
2023/09/02 12:17:31;;;;;;;3.03;2.40;;;;;;;;;;4918068;29;20442;-74
2023/09/02 12:19:58;;;;;;;3.60;2.10;;;;;;;;;;4920979;29;20421;-74
2023/09/02 12:22:24;;;;;;;3.90;2.10;;;;;;;;;;4936390;29;20943;-74
2023/09/02 12:24:50;;;;;;;4.90;2.57;;;;;;;;;;4951237;28;20951;-74
2023/09/02 12:27:17;;;;;;;2.80;2.10;;;;;;;;;;4936427;29;20417;-74
2023/09/02 12:29:54;;;;;;;4.80;2.33;;;;;;;;;;4936672;29;20425;-74
2023/09/02 12:32:20;;;;;;;4.70;2.03;;;;;;;;;;4931955;29;20473;-74
2023/09/02 12:34:46;;;;;;;3.60;2.10;;;;;;;;;;4936356;29;20796;-74
2023/09/02 12:37:19;;;;;;;4.37;2.30;;;;;;;;;;4936624;29;20410;-72
2023/09/02 12:39:45;;;;;;;3.77;2.00;;;;;;;;;;4934917;29;20418;-72
2023/09/02 12:42:14;;;;;;;3.83;2.27;;;;;;;;;;4927526;29;20438;-72
2023/09/02 12:44:54;;;;;;;3.13;2.03;;;;;;;;;;4917472;29;20437;-72
2023/09/02 12:47:20;;;;;;;3.80;2.30;;;;;;;;;;4917478;29;20410;-72
2023/09/02 12:49:47;;;;;;;3.70;1.90;;;;;;;;;;4917171;29;20497;-72
2023/09/02 12:52:22;;;;;;;3.83;2.30;;;;;;;;;;4917499;29;20476;-72
2023/09/02 12:54:55;;;;;;;6.97;2.37;;;;;;;;;;4918319;29;20871;-72
2023/09/02 12:57:31;;;;;;;3.23;2.07;;;;;;;;;;4915587;29;20518;-75
2023/09/02 12:59:58;;;;;;;4.70;2.37;;;;;;;;;;4916612;29;20407;-74
2023/09/02 13:02:24;;;;;;;4.60;2.30;;;;;;;;;;4917271;29;20453;-75
2023/09/02 13:04:50;;;;;;;4.33;2.57;;;;;;;;;;4917166;29;20430;-75
2023/09/02 13:07:20;;;;;;;3.43;2.00;;;;;;;;;;4916975;29;20469;-72
2023/09/02 13:09:46;;;;;;;2.83;1.90;;;;;;;;;;4916865;29;20497;-73
2023/09/02 13:12:12;;;;;;;5.80;2.10;;;;;;;;;;4916721;29;20473;-72
2023/09/02 13:14:39;;;;;;;3.80;2.37;;;;;;;;;;4916777;29;20488;-73
2023/09/02 13:17:05;;;;;;;5.67;2.40;;;;;;;;;;4917022;29;20415;-73
2023/09/02 13:19:31;;;;;;;4.63;2.27;;;;;;;;;;4916542;29;20426;-74
2023/09/02 13:21:58;;;;;;;4.57;2.20;;;;;;;;;;4916821;29;20418;-74
2023/09/02 13:24:26;;;;;;;3.10;2.30;;;;;;;;;;4916894;29;20442;-73
2023/09/02 13:26:52;;;;;;;8.23;2.67;;;;;;;;;;4916194;29;20943;-73
2023/09/02 13:29:18;;;;;;;3.80;2.20;;;;;;;;;;4916527;29;20893;-73
2023/09/02 13:31:45;;;;;;;5.10;2.63;;;;;;;;;;4916255;29;20480;-73
2023/09/02 13:34:29;;;;;;;4.43;2.30;;;;;;;;;;4917197;29;20952;-73
2023/09/02 13:37:00;;;;;;;3.83;2.40;;;;;;;;;;4916682;29;20410;-73
2023/09/02 13:39:26;;;;;;;4.10;2.17;;;;;;;;;;4916583;29;20423;-73
2023/09/02 13:41:52;;;;;;;5.00;2.27;;;;;;;;;;4916490;29;20831;-73
2023/09/02 13:44:18;;;;;;;2.93;2.27;;;;;;;;;;4917126;29;20755;-73
2023/09/02 13:46:44;;;;;;;4.73;2.60;;;;;;;;;;4916657;29;20418;-73
2023/09/02 13:49:12;;;;;;;5.30;2.47;;;;;;;;;;4916768;29;20457;-73
2023/09/02 13:51:39;;;;;;;5.37;2.50;;;;;;;;;;4916593;29;20521;-74
2023/09/02 13:54:06;;;;;;;4.63;2.30;;;;;;;;;;4916065;29;20942;-73
2023/09/02 13:56:32;;;;;;;3.10;2.17;;;;;;;;;;4933121;29;20926;-73
2023/09/02 13:59:00;;;;;;;3.13;2.50;;;;;;;;;;4935172;29;20406;-73
2023/09/02 14:01:28;;;;;;;6.07;2.63;;;;;;;;;;4935440;29;20497;-73
2023/09/02 14:03:54;;;;;;;3.10;2.10;;;;;;;;;;4935291;29;20473;-73
2023/09/02 14:06:20;;;;;;;7.40;2.53;;;;;;;;;;4934943;29;20456;-72
2023/09/02 14:08:46;;;;;;;3.63;2.10;;;;;;;;;;4916230;29;20449;-72
2023/09/02 14:11:13;;;;;;;5.00;2.60;;;;;;;;;;4915696;29;20964;-72
2023/09/02 14:13:40;;;;;;;4.97;2.83;;;;;;;;;;4915750;29;20493;-72
2023/09/02 14:16:07;;;;;;;4.77;2.20;;;;;;;;;;4914774;29;20975;-72
2023/09/02 14:18:33;;;;;;;11.97;2.97;;;;;;;;;;4915867;29;20506;-72
2023/09/02 14:20:59;;;;;;;3.80;2.40;;;;;;;;;;4916066;29;20427;-72
2023/09/02 14:23:25;;;;;;;4.87;2.40;;;;;;;;;;4915868;29;20427;-72
2023/09/02 14:25:51;;;;;;;3.57;2.20;;;;;;;;;;4915698;29;20426;-72
2023/09/02 14:28:17;;;;;;;4.27;2.43;;;;;;;;;;4915645;29;20457;-72
2023/09/02 14:30:44;;;;;;;13.63;2.20;;;;;;;;;;4915873;29;20415;-72
2023/09/02 14:33:10;;;;;;;7.90;2.80;;;;;;;;;;4932667;29;20883;-72
2023/09/02 14:35:35;;;;;;;8.13;2.90;;;;;;;;;;4934961;29;20417;-74
2023/09/02 14:38:01;;;;;;;5.23;2.10;;;;;;;;;;4934911;29;20451;-74
2023/09/02 14:40:27;;;;;;;3.53;2.47;;;;;;;;;;4934810;29;20485;-72
2023/09/02 14:42:53;;;;;;;3.23;2.27;;;;;;;;;;4932001;29;20434;-73
2023/09/02 14:45:19;;;;;;;6.43;2.97;;;;;;;;;;4915604;29;20434;-73
2023/09/02 14:47:45;;;;;;;2.40;1.97;;;;;;;;;;4915631;29;20501;-72
2023/09/02 14:50:11;;;;;;;4.60;2.50;;;;;;;;;;4915376;29;20426;-73
2023/09/02 14:52:38;;;;;;;8.10;2.50;;;;;;;;;;4915515;29;20458;-72
2023/09/02 14:55:05;;;;;;;5.80;2.50;;;;;;;;;;4916836;29;20428;-72
2023/09/02 14:57:33;;;;;;;3.43;2.13;;;;;;;;;;4934537;29;20753;-72
2023/09/02 14:59:59;;;;;;;4.27;2.50;;;;;;;;;;4934485;29;20424;-72
2023/09/02 15:02:28;;;;;;;5.00;2.20;;;;;;;;;;4934572;29;20483;-74
2023/09/02 15:04:54;;;;;;;5.13;2.40;;;;;;;;;;4934830;29;20496;-72
2023/09/02 15:07:20;;;;;;;8.67;2.47;;;;;;;;;;4932759;29;21987;-72
2023/09/02 15:09:47;;;;;;;3.27;2.30;;;;;;;;;;4915895;29;20777;-72
2023/09/02 15:12:14;;;;;;;2.87;2.13;;;;;;;;;;4915948;29;20501;-72
2023/09/02 15:14:41;;;;;;;4.30;2.40;;;;;;;;;;4915728;29;20454;-72
2023/09/02 15:17:08;;;;;;;4.97;2.90;;;;;;;;;;4915578;29;20430;-72
2023/09/02 15:19:34;;;;;;;3.30;2.47;;;;;;;;;;4917309;29;20920;-72
2023/09/02 15:22:01;;;;;;;5.60;2.30;;;;;;;;;;4917804;29;20865;-72
2023/09/02 15:24:28;;;;;;;4.67;2.40;;;;;;;;;;4918884;29;20481;-72
2023/09/02 15:26:54;;;;;;;2.90;2.43;;;;;;;;;;4918956;29;20439;-73
2023/09/02 15:29:23;;;;;;;3.73;2.47;;;;;;;;;;4932735;29;20811;-73
2023/09/02 15:31:51;;;;;;;4.60;2.60;;;;;;;;;;4919020;29;20565;-72
2023/09/02 15:34:17;;;;;;;2.93;2.10;;;;;;;;;;4918848;29;20859;-73
2023/09/02 15:36:43;;;;;;;4.10;2.70;;;;;;;;;;4919169;29;20444;-73
2023/09/02 15:39:10;;;;;;;4.93;2.57;;;;;;;;;;4918499;29;20446;-72
2023/09/02 15:41:38;;;;;;;4.03;2.47;;;;;;;;;;4918186;29;20936;-74
2023/09/02 15:44:04;;;;;;;5.60;2.30;;;;;;;;;;4918511;29;20484;-73
2023/09/02 15:46:30;;;;;;;5.33;2.57;;;;;;;;;;4917862;29;20419;-73
2023/09/02 15:48:59;;;;;;;3.93;2.40;;;;;;;;;;4916137;29;20433;-73
2023/09/02 15:51:25;;;;;;;3.90;2.67;;;;;;;;;;4932888;29;20473;-73
2023/09/02 15:53:51;;;;;;;6.07;2.60;;;;;;;;;;4936717;29;20444;-73
2023/09/02 15:56:17;;;;;;;4.23;2.50;;;;;;;;;;4937351;29;20414;-72
2023/09/02 15:58:44;;;;;;;5.70;3.60;;;;;;;;;;4937362;29;20425;-73
2023/09/02 16:01:10;;;;;;;5.77;2.80;;;;;;;;;;4924293;29;20807;-73
2023/09/02 16:03:36;;;;;;;3.47;2.57;;;;;;;;;;4918090;29;20454;-73
2023/09/02 16:06:02;;;;;;;6.90;2.60;;;;;;;;;;4918346;29;20418;-73
2023/09/02 16:08:28;;;;;;;2.90;2.57;;;;;;;;;;4917813;29;20905;-74
2023/09/02 16:10:53;;;;;;;2.97;2.10;;;;;;;;;;4927738;29;20868;-73
2023/09/02 16:13:21;;;;;;;5.67;2.80;;;;;;;;;;4936380;29;20469;-73
2023/09/02 16:15:47;;;;;;;4.93;3.17;;;;;;;;;;4937729;29;20410;-74
2023/09/02 16:18:13;;;;;;;4.70;2.70;;;;;;;;;;4937302;29;20982;-72
2023/09/02 16:20:39;;;;;;;4.03;2.80;;;;;;;;;;4928115;29;20518;-72
2023/09/02 16:23:05;;;;;;;6.80;3.43;;;;;;;;;;4918045;29;20774;-72
2023/09/02 16:25:31;;;;;;;4.17;2.40;;;;;;;;;;4917886;29;20486;-72
2023/09/02 16:27:57;;;;;;;6.57;2.87;;;;;;;;;;4917600;29;20425;-73
2023/09/02 16:30:23;;;;;;;5.40;3.67;;;;;;;;;;4915920;29;20465;-73
2023/09/02 16:32:49;;;;;;;4.50;3.10;;;;;;;;;;4917559;29;20541;-72
2023/09/02 16:35:17;;;;;;;6.73;3.20;;;;;;;;;;4917817;29;20411;-73
2023/09/02 16:37:44;;;;;;;7.60;2.97;;;;;;;;;;4918100;29;20462;-73
2023/09/02 16:40:11;;;;;;;4.10;2.80;;;;;;;;;;4921480;29;20425;-73
2023/09/02 16:42:41;;;;;;;5.07;2.80;;;;;;;;;;4936815;29;20510;-73
2023/09/02 16:45:08;;;;;;;8.10;3.17;;;;;;;;;;4936803;29;20485;-73
2023/09/02 16:47:41;;;;;;;6.33;3.50;;;;;;;;;;4936568;29;20463;-73
2023/09/02 16:50:07;;;;;;;4.70;2.50;;;;;;;;;;4931840;29;20442;-73
2023/09/02 16:52:33;;;;;;;6.43;3.20;;;;;;;;;;4917502;29;20574;-73
2023/09/02 16:55:03;;;;;;;3.50;2.20;;;;;;;;;;4917285;29;20442;-73
2023/09/02 16:57:30;;;;;;;4.03;2.50;;;;;;;;;;4917443;29;20407;-73
2023/09/02 16:59:56;;;;;;;4.77;2.80;;;;;;;;;;4918746;29;20462;-73
2023/09/02 17:02:24;;;;;;;3.93;2.53;;;;;;;;;;4925998;29;20530;-73
2023/09/02 17:04:50;;;;;;;5.10;2.70;;;;;;;;;;4917077;29;20785;-73
2023/09/02 17:07:16;;;;;;;5.10;2.80;;;;;;;;;;4924358;29;20924;-73
2023/09/02 17:09:42;;;;;;;3.63;2.47;;;;;;;;;;4936333;29;20560;-73
2023/09/02 17:12:08;;;;;;;4.13;2.30;;;;;;;;;;4935866;29;20560;-73
2023/09/02 17:14:34;;;;;;;5.70;2.70;;;;;;;;;;4935520;29;20453;-73
2023/09/02 17:17:00;;;;;;;4.90;2.30;;;;;;;;;;4931643;29;20513;-73
2023/09/02 17:19:26;;;;;;;5.00;3.00;;;;;;;;;;4916380;29;20418;-73
2023/09/02 17:21:58;;;;;;;4.80;2.80;;;;;;;;;;4922204;29;20783;-72
2023/09/02 17:24:24;;;;;;;8.13;2.47;;;;;;;;;;4929019;29;20430;-72
2023/09/02 17:26:50;;;;;;;4.43;2.63;;;;;;;;;;4919882;29;20418;-72
2023/09/02 17:29:17;;;;;;;5.90;2.97;;;;;;;;;;4916944;29;20509;-73
2023/09/02 17:31:43;;;;;;;4.97;3.03;;;;;;;;;;4916424;29;20511;-73
2023/09/02 17:34:09;;;;;;;8.73;3.80;;;;;;;;;;4916832;29;20474;-72
2023/09/02 17:36:35;;;;;;;7.60;3.10;;;;;;;;;;4917347;29;20422;-73
2023/09/02 17:39:01;;;;;;;12.63;3.60;;;;;;;;;;4916909;29;20415;-73
2023/09/02 17:41:28;;;;;;;5.20;3.00;;;;;;;;;;4916393;29;20840;-73
2023/09/02 17:43:53;;;;;;;15.13;2.60;;;;;;;;;;4916360;29;20441;-73
2023/09/02 17:46:21;;;;;;;5.80;3.03;;;;;;;;;;4916283;29;20419;-73
2023/09/02 17:48:47;;;;;;;5.77;3.07;;;;;;;;;;4916199;29;20422;-73
2023/09/02 17:51:13;;;;;;;4.27;3.40;;;;;;;;;;4915960;29;20494;-72
2023/09/02 17:53:39;;;;;;;6.33;3.40;;;;;;;;;;4916070;29;20462;-73
2023/09/02 17:56:05;;;;;;;4.70;3.23;;;;;;;;;;4915611;29;20458;-73
2023/09/02 17:58:31;;;;;;;10.27;4.73;;;;;;;;;;4916207;29;20909;-73
2023/09/02 18:00:57;;;;;;;7.23;3.80;;;;;;;;;;4916105;29;20837;-73
2023/09/02 18:03:23;;;;;;;5.10;3.70;;;;;;;;;;4915905;29;20489;-72
2023/09/02 18:05:49;;;;;;;5.33;3.23;;;;;;;;;;4916086;29;20415;-73
2023/09/02 18:08:15;;;;;;;14.50;4.53;;;;;;;;;;4915694;29;20411;-73
2023/09/02 18:10:40;;;;;;;4.30;3.13;;;;;;;;;;4915784;29;20430;-73
2023/09/02 18:13:07;;;;;;;8.20;4.40;;;;;;;;;;4939487;23;20560;-70
2023/09/02 18:15:33;;;;;;;7.47;4.60;;;;;;;;;;4933093;29;20957;-71
2023/09/02 18:18:00;;;;;;;5.50;3.63;;;;;;;;;;4934529;29;20441;-71
2023/09/02 18:20:26;;;;;;;5.90;3.33;;;;;;;;;;4953515;28;20401;-73
2023/09/02 18:22:52;;;;;;;6.00;3.53;;;;;;;;;;4952268;28;20459;-72
2023/09/02 18:25:18;;;;;;;9.40;3.67;;;;;;;;;;4935779;28;20422;-72
2023/09/02 18:27:44;;;;;;;4.63;2.93;;;;;;;;;;4933991;29;20414;-72
2023/09/02 18:30:10;;;;;;;5.47;3.53;;;;;;;;;;4925433;29;20931;-72
2023/09/02 18:32:36;;;;;;;10.70;4.00;;;;;;;;;;4934496;29;20849;-72
2023/09/02 18:35:02;;;;;;;6.63;3.40;;;;;;;;;;4934611;29;20637;-72
2023/09/02 18:37:28;;;;;;;7.93;2.90;;;;;;;;;;4934464;29;20895;-72
2023/09/02 18:39:54;;;;;;;6.37;3.67;;;;;;;;;;4927581;29;20973;-72
2023/09/02 18:42:20;;;;;;;5.83;3.83;;;;;;;;;;4915630;29;20493;-72
2023/09/02 18:44:46;;;;;;;6.33;4.00;;;;;;;;;;4915405;29;20449;-72
2023/09/02 18:47:12;;;;;;;5.83;4.00;;;;;;;;;;4915497;29;20505;-72
2023/09/02 18:49:38;;;;;;;9.87;4.27;;;;;;;;;;4915164;29;20414;-73
2023/09/02 18:52:05;;;;;;;7.30;4.00;;;;;;;;;;4921231;29;20471;-72
2023/09/02 18:54:31;;;;;;;7.10;4.13;;;;;;;;;;4933933;29;20457;-72
2023/09/02 18:56:56;;;;;;;10.83;5.17;;;;;;;;;;4935790;29;20413;-72
2023/09/02 18:59:23;;;;;;;10.40;6.33;;;;;;;;;;4937890;29;20418;-73
2023/09/02 19:01:49;;;;;;;20.37;11.67;;;;;;;;;;4934110;29;20419;-72
2023/09/02 19:04:15;;;;;;;25.23;11.10;;;;;;;;;;4918919;29;20444;-72
2023/09/02 19:06:41;;;;;;;13.37;6.73;;;;;;;;;;4919092;29;20934;-72
2023/09/02 19:09:09;;;;;;;9.70;5.30;;;;;;;;;;4918927;29;20426;-72
2023/09/02 19:11:35;;;;;;;9.23;5.80;;;;;;;;;;4919705;29;20476;-72
2023/09/02 19:14:01;;;;;;;24.03;8.67;;;;;;;;;;4928316;29;20461;-72
2023/09/02 19:16:27;;;;;;;16.83;9.10;;;;;;;;;;4937677;29;20429;-72
2023/09/02 19:18:53;;;;;;;11.00;7.20;;;;;;;;;;4937536;29;20472;-72
2023/09/02 19:21:20;;;;;;;11.67;5.97;;;;;;;;;;4937833;29;20437;-72
2023/09/02 19:23:46;;;;;;;14.13;7.13;;;;;;;;;;4917633;29;20461;-73
2023/09/02 19:26:12;;;;;;;13.90;8.10;;;;;;;;;;4918784;29;20418;-73
2023/09/02 19:28:38;;;;;;;13.33;6.93;;;;;;;;;;4919783;29;20435;-73
2023/09/02 19:31:04;;;;;;;10.23;5.93;;;;;;;;;;4918950;29;20509;-69
2023/09/02 19:33:32;;;;;;;12.77;7.00;;;;;;;;;;4919054;29;20450;-69
2023/09/02 19:35:58;;;;;;;12.37;4.93;;;;;;;;;;4919154;29;20422;-68
2023/09/02 19:38:24;;;;;;;15.93;6.80;;;;;;;;;;4918997;29;20423;-69
2023/09/02 19:40:50;;;;;;;9.33;5.40;;;;;;;;;;4918753;29;20430;-70
2023/09/02 19:43:16;;;;;;;17.20;7.70;;;;;;;;;;4932722;29;20429;-69
2023/09/02 19:45:42;;;;;;;14.43;7.27;;;;;;;;;;4936400;29;20422;-69
2023/09/02 19:48:08;;;;;;;13.17;7.67;;;;;;;;;;4936226;29;20417;-69
2023/09/02 19:50:36;;;;;;;18.80;7.30;;;;;;;;;;4937696;29;20414;-76
2023/09/02 19:53:02;;;;;;;15.43;7.13;;;;;;;;;;4925208;29;20470;-75
2023/09/02 19:55:28;;;;;;;14.83;7.33;;;;;;;;;;4918833;29;20503;-74
2023/09/02 19:57:54;;;;;;;16.40;7.20;;;;;;;;;;4917142;29;21067;-74
2023/09/02 20:00:20;;;;;;;15.00;7.40;;;;;;;;;;4918315;29;20422;-74
2023/09/02 20:02:45;;;;;;;17.73;7.63;;;;;;;;;;4918231;29;20430;-74
2023/09/02 20:05:11;;;;;;;15.70;7.10;;;;;;;;;;4918410;29;20801;-74
2023/09/02 20:07:37;;;;;;;15.10;7.50;;;;;;;;;;4917802;29;20900;-74
2023/09/02 20:10:03;;;;;;;13.23;6.97;;;;;;;;;;4918014;29;20418;-74
2023/09/02 20:12:29;;;;;;;14.50;8.13;;;;;;;;;;4916733;29;20472;-74
2023/09/02 20:14:56;;;;;;;19.50;8.40;;;;;;;;;;4932669;29;20510;-74
2023/09/02 20:17:21;;;;;;;11.43;6.57;;;;;;;;;;4918379;29;20507;-74
2023/09/02 20:19:47;;;;;;;12.07;7.53;;;;;;;;;;4917720;29;20501;-74
2023/09/02 20:22:13;;;;;;;14.73;9.00;;;;;;;;;;4917418;29;20437;-74
2023/09/02 20:24:39;;;;;;;16.53;8.17;;;;;;;;;;4909909;29;20830;-73
2023/09/02 20:27:05;;;;;;;18.60;9.07;;;;;;;;;;4918081;29;20415;-74
2023/09/02 20:29:34;;;;;;;19.90;9.20;;;;;;;;;;4916331;29;20562;-73
2023/09/02 20:32:00;;;;;;;15.40;8.23;;;;;;;;;;4917636;29;20846;-73
2023/09/02 20:34:26;;;;;;;15.50;8.43;;;;;;;;;;4917904;29;20529;-73
2023/09/02 20:36:52;;;;;;;12.17;7.97;;;;;;;;;;4918314;29;20899;-74
2023/09/02 20:39:19;;;;;;;13.73;7.70;;;;;;;;;;4917602;29;20769;-74
2023/09/02 20:41:45;;;;;;;15.80;7.83;;;;;;;;;;4917037;29;20506;-74
2023/09/02 20:44:11;;;;;;;13.15;7.82;;;;;;;;;;4914393;29;20577;-74